createdAt,value
2017-11-29T00:00:21.769Z,5.40
2017-11-29T00:02:47.994Z,5.46
2017-11-29T00:05:14.383Z,5.55
2017-11-29T00:07:40.797Z,5.64
2017-11-29T00:10:07.224Z,5.63
2017-11-29T00:12:33.594Z,5.52
2017-11-29T00:15:00.051Z,5.45
2017-11-29T00:17:26.530Z,5.46
2017-11-29T00:19:53.005Z,5.43
2017-11-29T00:22:19.490Z,5.39
2017-11-29T00:24:46.005Z,5.38
2017-11-29T00:27:12.435Z,5.43
2017-11-29T00:29:38.902Z,5.38
2017-11-29T00:32:05.334Z,5.30
2017-11-29T00:34:31.790Z,5.16
2017-11-29T00:36:58.362Z,5.09
2017-11-29T00:39:24.839Z,5.06
2017-11-29T00:41:51.319Z,5.13
2017-11-29T00:44:17.903Z,5.13
2017-11-29T00:46:44.340Z,5.09
2017-11-29T00:49:10.792Z,5.25
2017-11-29T00:51:37.305Z,5.27
2017-11-29T00:54:03.777Z,5.32
2017-11-29T00:56:30.226Z,5.29
2017-11-29T00:58:56.914Z,5.29
2017-11-29T01:01:23.377Z,5.32
2017-11-29T01:03:49.849Z,5.41
2017-11-29T01:06:16.365Z,5.57
2017-11-29T01:08:42.790Z,5.69
2017-11-29T01:11:09.230Z,5.51
2017-11-29T01:13:35.702Z,5.60
2017-11-29T01:16:02.159Z,5.57
2017-11-29T01:18:28.578Z,5.65
2017-11-29T01:20:55.221Z,5.67
2017-11-29T01:23:21.758Z,5.70
2017-11-29T01:25:48.293Z,5.65
2017-11-29T01:28:14.780Z,5.74
2017-11-29T01:30:41.195Z,5.83
2017-11-29T01:33:07.633Z,5.79
2017-11-29T01:35:34.098Z,5.67
2017-11-29T01:38:00.571Z,5.84
2017-11-29T01:40:26.982Z,5.96
2017-11-29T01:42:53.610Z,5.89
2017-11-29T01:45:20.068Z,5.86
2017-11-29T01:47:46.801Z,5.85
2017-11-29T01:50:13.385Z,5.86
2017-11-29T01:52:39.825Z,5.90
2017-11-29T01:55:06.350Z,5.86
2017-11-29T01:57:32.886Z,5.91
2017-11-29T01:59:59.357Z,5.96
2017-11-29T02:02:25.793Z,5.93
2017-11-29T02:04:52.311Z,6.04
2017-11-29T02:07:18.736Z,6.11
2017-11-29T02:09:45.182Z,6.17
2017-11-29T02:12:11.650Z,6.19
2017-11-29T02:14:38.063Z,6.13
2017-11-29T02:17:04.499Z,6.08
2017-11-29T02:19:31.034Z,6.07
2017-11-29T02:21:57.694Z,6.07
2017-11-29T02:24:24.433Z,6.08
2017-11-29T02:26:51.031Z,6.13
2017-11-29T02:29:17.606Z,6.13
2017-11-29T02:31:44.180Z,6.03
2017-11-29T02:34:10.758Z,5.96
2017-11-29T02:36:37.344Z,5.97
2017-11-29T02:39:03.970Z,6.12
2017-11-29T02:41:42.546Z,6.17
2017-11-29T02:44:08.983Z,6.12
2017-11-29T02:46:35.577Z,6.08
2017-11-29T02:49:02.130Z,6.16
2017-11-29T02:51:28.668Z,6.16
2017-11-29T02:53:55.253Z,6.11
2017-11-29T02:56:21.890Z,6.03
2017-11-29T02:58:48.501Z,5.99
2017-11-29T03:01:15.063Z,6.01
2017-11-29T03:03:41.651Z,5.96
2017-11-29T03:06:08.170Z,5.85
2017-11-29T03:08:34.649Z,5.73
2017-11-29T03:11:01.210Z,5.69
2017-11-29T03:13:27.693Z,5.61
2017-11-29T03:15:54.116Z,5.57
2017-11-29T03:18:20.613Z,5.55
2017-11-29T03:20:47.026Z,5.52
2017-11-29T03:23:13.578Z,5.50
2017-11-29T03:25:40.074Z,5.52
2017-11-29T03:28:06.546Z,5.56
2017-11-29T03:30:32.964Z,5.52
2017-11-29T03:32:59.516Z,5.56
2017-11-29T03:35:25.935Z,5.60
2017-11-29T03:37:52.391Z,5.54
2017-11-29T03:40:18.890Z,5.52
2017-11-29T03:42:45.335Z,5.49
2017-11-29T03:45:11.759Z,5.40
2017-11-29T03:47:38.246Z,5.32
2017-11-29T03:50:04.754Z,5.31
2017-11-29T03:52:31.161Z,5.21
2017-11-29T03:54:57.617Z,5.12
2017-11-29T03:57:24.441Z,5.14
2017-11-29T03:59:50.846Z,5.21
2017-11-29T04:02:17.234Z,5.27
2017-11-29T04:04:43.604Z,5.32
2017-11-29T04:07:10.101Z,5.31
2017-11-29T04:09:36.627Z,5.26
2017-11-29T04:12:03.037Z,5.30
2017-11-29T04:14:29.431Z,5.24
2017-11-29T04:16:55.923Z,5.18
2017-11-29T04:19:22.373Z,5.16
2017-11-29T04:21:48.900Z,5.24
2017-11-29T04:24:15.337Z,5.35
2017-11-29T04:26:41.866Z,5.44
2017-11-29T04:29:08.278Z,5.42
2017-11-29T04:31:34.682Z,5.40
2017-11-29T04:34:01.009Z,5.39
2017-11-29T04:36:27.353Z,5.37
2017-11-29T04:38:53.729Z,5.46
2017-11-29T04:41:20.054Z,5.48
2017-11-29T04:43:46.457Z,5.52
2017-11-29T04:46:12.837Z,5.49
2017-11-29T04:48:39.297Z,5.42
2017-11-29T04:51:05.751Z,5.44
2017-11-29T04:53:32.266Z,5.42
2017-11-29T04:55:58.706Z,5.50
2017-11-29T04:58:25.116Z,5.52
2017-11-29T05:00:51.662Z,5.46
2017-11-29T05:03:18.140Z,5.39
2017-11-29T05:05:44.621Z,5.42
2017-11-29T05:08:11.103Z,5.35
2017-11-29T05:10:37.482Z,5.24
2017-11-29T05:13:03.887Z,5.33
2017-11-29T05:15:30.382Z,5.42
2017-11-29T05:17:56.785Z,5.45
2017-11-29T05:20:23.257Z,5.40
2017-11-29T05:22:49.745Z,5.41
2017-11-29T05:25:16.161Z,5.44
2017-11-29T05:27:42.635Z,5.49
2017-11-29T05:30:09.151Z,5.56
2017-11-29T05:32:35.601Z,5.57
2017-11-29T05:35:02.061Z,5.56
2017-11-29T05:37:28.511Z,5.62
2017-11-29T05:39:54.929Z,5.62
2017-11-29T05:42:21.375Z,5.57
2017-11-29T05:44:47.866Z,5.49
2017-11-29T05:47:14.293Z,5.50
2017-11-29T05:49:40.744Z,5.48
2017-11-29T05:52:07.213Z,5.49
2017-11-29T05:54:33.653Z,5.40
2017-11-29T05:57:00.081Z,5.28
2017-11-29T05:59:26.508Z,5.25
2017-11-29T06:01:52.942Z,5.20
2017-11-29T06:04:19.330Z,5.06
2017-11-29T06:06:45.821Z,5.01
2017-11-29T06:09:12.470Z,5.02
2017-11-29T06:11:38.892Z,4.98
2017-11-29T06:14:05.398Z,5.00
2017-11-29T06:16:31.948Z,5.03
2017-11-29T06:18:58.519Z,5.02
2017-11-29T06:21:25.086Z,5.01
2017-11-29T06:23:51.558Z,5.04
2017-11-29T06:26:18.099Z,5.14
2017-11-29T06:28:44.662Z,5.18
2017-11-29T06:31:11.277Z,5.26
2017-11-29T06:33:37.807Z,5.32
2017-11-29T06:36:04.319Z,5.39
2017-11-29T06:38:30.984Z,5.45
2017-11-29T06:40:57.458Z,5.56
2017-11-29T06:43:23.838Z,5.57
2017-11-29T06:45:50.165Z,5.47
2017-11-29T06:48:16.498Z,5.39
2017-11-29T06:50:42.945Z,5.41
2017-11-29T06:53:09.278Z,5.52
2017-11-29T06:55:35.748Z,5.58
2017-11-29T06:58:02.295Z,5.61
2017-11-29T07:00:28.700Z,5.63
2017-11-29T07:02:55.118Z,5.68
2017-11-29T07:05:21.542Z,5.73
2017-11-29T07:07:47.957Z,5.79
2017-11-29T07:10:16.434Z,5.72
2017-11-29T07:12:43.305Z,5.63
2017-11-29T07:15:09.654Z,5.55
2017-11-29T07:17:35.990Z,5.52
2017-11-29T07:20:02.393Z,5.58
2017-11-29T07:22:28.770Z,5.61
2017-11-29T07:24:55.181Z,5.65
2017-11-29T07:27:21.554Z,5.72
2017-11-29T07:29:47.880Z,5.92
2017-11-29T07:32:14.253Z,6.27
2017-11-29T07:34:40.744Z,6.53
2017-11-29T07:37:07.144Z,6.81
2017-11-29T07:39:33.506Z,6.93
2017-11-29T07:41:59.873Z,7.06
2017-11-29T07:44:26.265Z,7.28
2017-11-29T07:46:52.614Z,7.48
2017-11-29T07:49:19.056Z,7.53
2017-11-29T07:51:45.401Z,7.48
2017-11-29T07:54:11.726Z,7.40
2017-11-29T07:56:38.096Z,7.38
2017-11-29T07:59:04.430Z,7.55
2017-11-29T08:01:30.770Z,7.70
2017-11-29T08:03:57.174Z,7.88
2017-11-29T08:06:23.537Z,8.04
2017-11-29T08:08:49.910Z,7.93
2017-11-29T08:11:16.288Z,8.20
2017-11-29T08:13:42.645Z,8.16
2017-11-29T08:16:09.018Z,8.16
2017-11-29T08:18:35.376Z,8.02
2017-11-29T08:21:01.746Z,7.96
2017-11-29T08:23:28.094Z,8.04
2017-11-29T08:25:54.634Z,8.28
2017-11-29T08:28:21.116Z,8.36
2017-11-29T08:30:47.735Z,8.39
2017-11-29T08:33:14.262Z,8.38
2017-11-29T08:35:40.695Z,8.47
2017-11-29T08:38:07.219Z,8.48
2017-11-29T08:40:33.866Z,8.20
2017-11-29T08:43:00.477Z,7.98
2017-11-29T08:45:26.894Z,8.03
2017-11-29T08:47:53.428Z,7.64
2017-11-29T08:50:19.917Z,7.67
2017-11-29T08:52:46.345Z,7.95
2017-11-29T08:55:12.905Z,8.02
2017-11-29T08:57:39.387Z,8.18
2017-11-29T09:00:05.806Z,8.43
2017-11-29T09:02:32.282Z,8.51
2017-11-29T09:04:58.737Z,8.59
2017-11-29T09:07:25.283Z,8.56
2017-11-29T09:09:51.766Z,8.58
2017-11-29T09:12:18.183Z,8.60
2017-11-29T09:14:44.817Z,8.68
2017-11-29T09:17:11.290Z,8.59
2017-11-29T09:19:37.824Z,8.62
2017-11-29T09:22:04.290Z,7.89
2017-11-29T09:24:30.768Z,8.31
2017-11-29T09:26:58.098Z,8.42
2017-11-29T09:29:24.542Z,8.42
2017-11-29T09:31:51.286Z,8.63
2017-11-29T09:34:17.742Z,8.78
2017-11-29T09:36:44.192Z,8.82
2017-11-29T09:39:10.691Z,8.58
2017-11-29T09:41:37.337Z,8.62
2017-11-29T09:44:03.798Z,8.76
2017-11-29T09:46:30.246Z,8.67
2017-11-29T09:48:56.708Z,8.34
2017-11-29T09:51:23.158Z,8.61
2017-11-29T09:53:49.689Z,8.68
2017-11-29T09:56:16.201Z,8.70
2017-11-29T09:58:42.756Z,8.66
2017-11-29T10:01:09.242Z,8.77
2017-11-29T10:03:35.681Z,8.80
2017-11-29T10:06:02.174Z,8.89
2017-11-29T10:08:28.646Z,8.66
2017-11-29T10:10:55.081Z,8.46
2017-11-29T10:13:21.535Z,8.39
2017-11-29T10:15:48.020Z,8.52
2017-11-29T10:18:14.590Z,8.52
2017-11-29T10:20:41.025Z,8.77
2017-11-29T10:23:07.498Z,8.96
2017-11-29T10:25:33.982Z,9.19
2017-11-29T10:28:00.422Z,9.10
2017-11-29T10:30:27.090Z,9.04
2017-11-29T10:32:53.554Z,9.18
2017-11-29T10:35:20.051Z,9.33
2017-11-29T10:37:46.602Z,9.47
2017-11-29T10:40:13.116Z,9.49
2017-11-29T10:42:39.552Z,9.52
2017-11-29T10:45:06.170Z,9.66
2017-11-29T10:47:32.597Z,9.67
2017-11-29T10:49:59.037Z,9.66
2017-11-29T10:52:25.523Z,9.70
2017-11-29T10:54:51.950Z,9.71
2017-11-29T10:57:18.408Z,9.74
2017-11-29T10:59:44.864Z,9.81
2017-11-29T11:02:11.328Z,9.86
2017-11-29T11:04:37.791Z,9.81
2017-11-29T11:07:04.652Z,9.92
2017-11-29T11:09:31.328Z,9.94
2017-11-29T11:11:57.988Z,9.95
2017-11-29T11:14:24.465Z,9.92
2017-11-29T11:16:50.897Z,10.01
2017-11-29T11:19:17.331Z,10.06
2017-11-29T11:21:43.833Z,10.03
2017-11-29T11:24:10.359Z,10.00
2017-11-29T11:26:36.853Z,9.93
2017-11-29T11:29:03.396Z,10.04
2017-11-29T11:31:29.837Z,10.14
2017-11-29T11:33:56.323Z,10.22
2017-11-29T11:36:22.850Z,10.16
2017-11-29T11:38:49.353Z,10.13
2017-11-29T11:41:15.851Z,10.18
2017-11-29T11:43:42.328Z,10.15
2017-11-29T11:46:08.787Z,10.16
2017-11-29T11:48:35.231Z,10.19
2017-11-29T11:51:01.707Z,10.26
2017-11-29T11:53:28.269Z,10.25
2017-11-29T11:55:54.722Z,10.15
2017-11-29T11:58:21.214Z,9.91
2017-11-29T12:00:47.716Z,10.02
2017-11-29T12:03:14.258Z,10.01
2017-11-29T12:05:40.746Z,10.11
2017-11-29T12:08:07.165Z,10.09
2017-11-29T12:10:33.607Z,10.11
2017-11-29T12:13:00.096Z,10.16
2017-11-29T12:15:26.507Z,10.24
2017-11-29T12:17:53.078Z,10.16
2017-11-29T12:20:19.589Z,10.14
2017-11-29T12:22:46.082Z,10.20
2017-11-29T12:25:12.502Z,10.23
2017-11-29T12:27:39.010Z,10.23
2017-11-29T12:30:05.458Z,10.26
2017-11-29T12:32:31.882Z,10.30
2017-11-29T12:34:58.382Z,10.30
2017-11-29T12:37:24.848Z,10.22
2017-11-29T12:39:51.281Z,10.22
2017-11-29T12:42:17.887Z,10.25
2017-11-29T12:44:44.495Z,10.31
2017-11-29T12:47:10.979Z,10.35
2017-11-29T12:49:49.752Z,10.33
2017-11-29T12:52:16.066Z,10.28
2017-11-29T12:54:42.473Z,10.26
2017-11-29T12:57:08.951Z,10.36
2017-11-29T12:59:35.362Z,10.32
2017-11-29T13:02:01.992Z,10.29
2017-11-29T13:04:28.667Z,10.30
2017-11-29T13:06:55.298Z,10.29
2017-11-29T13:09:21.838Z,10.25
2017-11-29T13:11:48.346Z,10.29
2017-11-29T13:14:14.801Z,10.32
2017-11-29T13:16:41.235Z,10.34
2017-11-29T13:19:07.769Z,10.32
2017-11-29T13:21:34.177Z,10.33
2017-11-29T13:24:00.757Z,10.33
2017-11-29T13:26:27.580Z,10.33
2017-11-29T13:28:54.043Z,10.34
2017-11-29T13:31:20.486Z,10.33
2017-11-29T13:33:46.966Z,10.36
2017-11-29T13:36:13.389Z,10.34
2017-11-29T13:38:39.970Z,10.32
2017-11-29T13:41:06.448Z,10.29
2017-11-29T13:43:32.874Z,10.33
2017-11-29T13:45:59.331Z,10.33
2017-11-29T13:48:26.128Z,10.30
2017-11-29T13:50:52.557Z,10.29
2017-11-29T13:53:19.010Z,10.26
2017-11-29T13:55:45.497Z,10.26
2017-11-29T13:58:11.935Z,10.29
2017-11-29T14:00:38.367Z,10.32
2017-11-29T14:03:04.841Z,10.28
2017-11-29T14:05:31.281Z,10.25
2017-11-29T14:07:57.734Z,10.23
2017-11-29T14:10:24.182Z,10.24
2017-11-29T14:12:50.515Z,10.24
2017-11-29T14:15:16.893Z,10.21
2017-11-29T14:17:43.279Z,10.20
2017-11-29T14:20:09.625Z,10.21
2017-11-29T14:22:35.987Z,10.18
2017-11-29T14:25:02.373Z,10.18
2017-11-29T14:27:28.757Z,10.13
2017-11-29T14:29:55.206Z,10.09
2017-11-29T14:32:21.758Z,10.01
2017-11-29T14:34:48.121Z,9.96
2017-11-29T14:37:14.486Z,9.93
2017-11-29T14:39:41.245Z,9.94
2017-11-29T14:42:07.642Z,9.96
2017-11-29T14:44:33.981Z,9.92
2017-11-29T14:47:00.375Z,9.98
2017-11-29T14:49:27.308Z,9.98
2017-11-29T14:51:54.864Z,9.95
2017-11-29T14:54:24.628Z,9.90
2017-11-29T14:56:53.048Z,9.90
2017-11-29T14:59:24.455Z,9.89
2017-11-29T15:01:51.940Z,9.85
2017-11-29T15:04:24.256Z,9.78
2017-11-29T15:06:53.925Z,9.78
2017-11-29T15:09:24.576Z,9.81
2017-11-29T15:11:53.456Z,9.83
2017-11-29T15:14:23.447Z,9.85
2017-11-29T15:16:50.062Z,9.78
2017-11-29T15:19:16.409Z,9.77
2017-11-29T15:21:42.794Z,9.78
2017-11-29T15:24:09.185Z,9.74
2017-11-29T15:26:35.518Z,9.72
2017-11-29T15:29:01.930Z,9.66
2017-11-29T15:31:28.356Z,9.62
2017-11-29T15:33:54.776Z,9.56
2017-11-29T15:36:21.241Z,9.44
2017-11-29T15:38:47.640Z,9.36
2017-11-29T15:41:14.038Z,9.30
2017-11-29T15:43:40.535Z,9.23
2017-11-29T15:46:07.177Z,9.22
2017-11-29T15:48:33.653Z,9.14
2017-11-29T15:51:00.157Z,9.15
2017-11-29T15:53:26.556Z,9.08
2017-11-29T15:55:52.933Z,9.02
2017-11-29T15:58:19.326Z,8.93
2017-11-29T16:00:45.750Z,8.85
2017-11-29T16:03:12.145Z,8.82
2017-11-29T16:05:38.570Z,8.77
2017-11-29T16:08:04.943Z,8.77
2017-11-29T16:10:31.353Z,8.66
2017-11-29T16:12:57.827Z,8.56
2017-11-29T16:15:24.219Z,8.55
2017-11-29T16:17:50.676Z,8.53
2017-11-29T16:20:17.153Z,8.54
2017-11-29T16:22:43.525Z,8.54
2017-11-29T16:25:09.955Z,8.52
2017-11-29T16:27:36.569Z,8.47
2017-11-29T16:30:03.030Z,8.49
2017-11-29T16:32:29.435Z,8.46
2017-11-29T16:34:55.891Z,8.39
2017-11-29T16:37:22.325Z,8.38
2017-11-29T16:39:48.758Z,8.33
2017-11-29T16:42:15.815Z,8.30
2017-11-29T16:44:42.982Z,8.25
2017-11-29T16:47:09.349Z,8.24
2017-11-29T16:49:35.787Z,8.30
2017-11-29T16:52:02.206Z,8.26
2017-11-29T16:54:28.598Z,8.27
2017-11-29T16:56:54.992Z,8.19
2017-11-29T16:59:21.406Z,8.07
2017-11-29T17:01:47.759Z,7.97
2017-11-29T17:04:14.220Z,7.82
2017-11-29T17:06:40.693Z,7.68
2017-11-29T17:09:07.059Z,7.56
2017-11-29T17:11:33.509Z,7.50
2017-11-29T17:13:59.977Z,7.45
2017-11-29T17:16:26.365Z,7.47
2017-11-29T17:18:52.808Z,7.45
2017-11-29T17:21:19.162Z,7.44
2017-11-29T17:23:45.559Z,7.41
2017-11-29T17:26:11.974Z,7.38
2017-11-29T17:28:38.345Z,7.33
2017-11-29T17:31:04.777Z,7.27
2017-11-29T17:33:31.238Z,7.26
2017-11-29T17:35:57.689Z,7.17
2017-11-29T17:38:24.079Z,7.13
2017-11-29T17:40:50.601Z,7.10
2017-11-29T17:43:16.968Z,7.05
2017-11-29T17:45:43.332Z,7.01
2017-11-29T17:48:09.735Z,6.95
2017-11-29T17:50:36.114Z,6.87
2017-11-29T17:53:02.497Z,6.79
2017-11-29T17:55:28.954Z,6.86
2017-11-29T17:57:55.497Z,6.84
2017-11-29T18:00:21.928Z,6.86
2017-11-29T18:02:48.410Z,6.84
2017-11-29T18:05:14.823Z,6.82
2017-11-29T18:07:41.199Z,6.76
2017-11-29T18:10:07.638Z,6.72
2017-11-29T18:12:34.066Z,6.73
2017-11-29T18:15:00.496Z,6.67
2017-11-29T18:17:27.036Z,6.69
2017-11-29T18:19:53.498Z,6.72
2017-11-29T18:22:19.940Z,6.63
2017-11-29T18:24:46.456Z,6.58
2017-11-29T18:27:12.850Z,6.49
2017-11-29T18:29:39.279Z,6.53
2017-11-29T18:32:05.750Z,6.55
2017-11-29T18:34:32.122Z,6.53
2017-11-29T18:36:58.542Z,6.54
2017-11-29T18:39:24.939Z,6.51
2017-11-29T18:41:52.083Z,6.52
2017-11-29T18:44:23.455Z,6.60
2017-11-29T18:46:52.861Z,6.63
2017-11-29T18:49:24.205Z,6.48
2017-11-29T18:51:53.119Z,6.44
2017-11-29T18:54:20.761Z,6.45
2017-11-29T18:56:48.527Z,6.44
2017-11-29T18:59:16.786Z,6.50
2017-11-29T19:01:44.243Z,6.45
2017-11-29T19:04:11.898Z,6.42
2017-11-29T19:06:38.435Z,6.49
2017-11-29T19:09:04.875Z,6.53
2017-11-29T19:11:31.288Z,6.64
2017-11-29T19:13:57.746Z,6.68
2017-11-29T19:16:24.206Z,6.69
2017-11-29T19:18:50.618Z,6.72
2017-11-29T19:21:17.110Z,6.66
2017-11-29T19:23:43.596Z,6.60
2017-11-29T19:26:10.011Z,6.55
2017-11-29T19:28:36.454Z,6.59
2017-11-29T19:31:02.949Z,6.55
2017-11-29T19:33:29.612Z,6.50
2017-11-29T19:35:56.054Z,6.41
2017-11-29T19:38:22.481Z,6.40
2017-11-29T19:40:48.910Z,6.40
2017-11-29T19:43:15.293Z,6.43
2017-11-29T19:45:41.699Z,6.46
2017-11-29T19:48:08.081Z,6.41
2017-11-29T19:50:34.519Z,6.24
2017-11-29T19:53:00.883Z,6.23
2017-11-29T19:55:27.253Z,6.25
2017-11-29T19:57:53.722Z,6.23
2017-11-29T20:00:20.081Z,6.30
2017-11-29T20:02:46.543Z,6.33
2017-11-29T20:05:13.087Z,6.35
2017-11-29T20:07:39.475Z,6.36
2017-11-29T20:10:05.976Z,6.38
2017-11-29T20:12:32.541Z,6.40
2017-11-29T20:14:59.033Z,6.45
2017-11-29T20:17:25.614Z,6.34
2017-11-29T20:19:52.083Z,6.30
2017-11-29T20:22:18.684Z,6.30
2017-11-29T20:24:45.663Z,6.39
2017-11-29T20:27:14.049Z,6.42
2017-11-29T20:29:41.902Z,6.59
2017-11-29T20:32:10.605Z,6.66
2017-11-29T20:34:39.198Z,6.62
2017-11-29T20:37:07.431Z,6.57
2017-11-29T20:39:34.423Z,6.54
2017-11-29T20:42:01.373Z,6.42
2017-11-29T20:44:27.882Z,6.31
2017-11-29T20:46:54.248Z,6.28
2017-11-29T20:49:20.721Z,6.25
2017-11-29T20:51:47.114Z,6.14
2017-11-29T20:54:13.500Z,6.11
2017-11-29T20:56:39.942Z,6.17
2017-11-29T20:59:06.298Z,6.20
2017-11-29T21:01:32.729Z,6.13
2017-11-29T21:03:59.247Z,6.09
2017-11-29T21:06:25.891Z,6.11
2017-11-29T21:08:52.308Z,6.17
2017-11-29T21:11:18.834Z,6.22
2017-11-29T21:13:45.219Z,6.24
2017-11-29T21:16:11.646Z,6.26
2017-11-29T21:18:38.128Z,6.24
2017-11-29T21:21:04.489Z,6.17
2017-11-29T21:23:30.840Z,6.08
2017-11-29T21:25:57.260Z,6.08
2017-11-29T21:28:23.681Z,6.05
2017-11-29T21:30:50.102Z,5.98
2017-11-29T21:33:16.495Z,5.93
2017-11-29T21:35:42.863Z,5.93
2017-11-29T21:38:09.423Z,5.85
2017-11-29T21:40:35.855Z,5.85
2017-11-29T21:43:02.206Z,5.90
2017-11-29T21:45:28.666Z,5.85
2017-11-29T21:47:55.100Z,5.78
2017-11-29T21:50:21.513Z,5.79
2017-11-29T21:52:47.925Z,5.70
2017-11-29T21:55:14.330Z,5.66
2017-11-29T21:57:40.667Z,5.64
2017-11-29T22:00:07.026Z,5.60
2017-11-29T22:02:34.230Z,5.61
2017-11-29T22:05:01.251Z,5.62
2017-11-29T22:07:27.660Z,5.66
2017-11-29T22:09:54.045Z,5.60
2017-11-29T22:12:20.380Z,5.53
2017-11-29T22:14:46.747Z,5.48
2017-11-29T22:17:13.183Z,5.48
2017-11-29T22:19:39.578Z,5.54
2017-11-29T22:22:06.005Z,5.61
2017-11-29T22:24:32.377Z,5.59
2017-11-29T22:26:58.764Z,5.55
2017-11-29T22:29:25.176Z,5.62
2017-11-29T22:31:51.586Z,5.57
2017-11-29T22:34:17.964Z,5.54
2017-11-29T22:36:44.342Z,5.48
2017-11-29T22:39:10.729Z,5.52
2017-11-29T22:41:37.105Z,5.48
2017-11-29T22:44:03.487Z,5.54
2017-11-29T22:46:29.905Z,5.56
2017-11-29T22:48:56.284Z,5.44
2017-11-29T22:51:22.788Z,5.39
2017-11-29T22:53:49.239Z,5.39
2017-11-29T22:56:15.586Z,5.39
2017-11-29T22:58:41.971Z,5.37
2017-11-29T23:01:08.379Z,5.35
2017-11-29T23:03:34.750Z,5.39
2017-11-29T23:06:01.101Z,5.35
2017-11-29T23:08:27.511Z,5.34
2017-11-29T23:10:53.870Z,5.34
2017-11-29T23:13:20.260Z,5.30
2017-11-29T23:15:46.647Z,5.19
2017-11-29T23:18:13.021Z,5.20
2017-11-29T23:20:39.390Z,5.18
2017-11-29T23:23:05.803Z,5.22
2017-11-29T23:25:32.246Z,5.30
2017-11-29T23:27:58.683Z,5.38
2017-11-29T23:30:25.089Z,5.44
2017-11-29T23:32:51.468Z,5.48
2017-11-29T23:35:17.841Z,5.56
2017-11-29T23:37:44.261Z,5.61
2017-11-29T23:40:10.609Z,5.60
2017-11-29T23:42:37.069Z,5.55
2017-11-29T23:45:03.533Z,5.51
2017-11-29T23:47:29.922Z,5.56
2017-11-29T23:49:56.336Z,5.51
2017-11-29T23:52:22.816Z,5.51
2017-11-29T23:54:49.205Z,5.48
2017-11-29T23:57:15.574Z,5.51
2017-11-29T23:59:41.965Z,5.48
